Time;durP1;ratioP1;P1;durP2;ratioP2;P2;SDS_P1;SDS_P2;PMS_P1;PMS_P2;Temp;Humidity;BMP_temperature;BMP_pressure;BME280_temperature;BME280_humidity;BME280_pressure;Samples;Min_cycle;Max_cycle;Signal;HPM_P1;HPM_P2
2022/12/25 00:02:03;;;;;;;9.50;2.97;;;8.80;99.90;;;;;;5051016;28;20225;-45
2022/12/25 00:04:29;;;;;;;14.13;3.08;;;8.80;99.90;;;;;;5049956;28;20175;-46
2022/12/25 00:06:54;;;;;;;7.97;3.05;;;8.80;99.90;;;;;;5031227;28;20159;-45
2022/12/25 00:09:20;;;;;;;9.13;3.20;;;8.80;99.90;;;;;;5031125;28;20194;-45
2022/12/25 00:11:46;;;;;;;8.13;3.40;;;8.80;99.90;;;;;;5035225;28;20183;-46
2022/12/25 00:14:11;;;;;;;9.35;2.92;;;8.80;99.90;;;;;;5049941;28;20174;-47
2022/12/25 00:16:37;;;;;;;7.47;2.95;;;8.90;99.90;;;;;;5031687;28;20175;-45
2022/12/25 00:19:02;;;;;;;5.32;2.75;;;8.90;99.90;;;;;;5031059;28;20203;-45
2022/12/25 00:21:28;;;;;;;11.50;4.32;;;8.90;99.90;;;;;;5031002;28;20242;-46
2022/12/25 00:23:56;;;;;;;9.32;3.15;;;8.90;99.90;;;;;;5031096;28;20174;-46
2022/12/25 00:26:21;;;;;;;9.35;3.67;;;8.90;99.90;;;;;;5031069;28;20210;-48
2022/12/25 00:28:49;;;;;;;9.82;3.05;;;8.90;99.90;;;;;;5035534;28;20593;-45
2022/12/25 00:31:16;;;;;;;7.57;3.58;;;8.80;99.90;;;;;;5049945;28;20170;-45
2022/12/25 00:33:45;;;;;;;8.95;4.35;;;8.80;99.90;;;;;;5053479;28;20202;-45
2022/12/25 00:36:13;;;;;;;15.77;4.05;;;8.80;99.90;;;;;;5040184;28;20178;-47
2022/12/25 00:38:40;;;;;;;10.70;4.05;;;8.80;99.90;;;;;;5036577;28;20248;-45
2022/12/25 00:41:14;;;;;;;12.40;4.32;;;8.80;99.90;;;;;;5050300;28;20162;-45
2022/12/25 00:43:43;;;;;;;13.63;4.57;;;8.80;99.90;;;;;;5042316;28;20178;-45
2022/12/25 00:46:11;;;;;;;11.75;5.32;;;8.80;99.90;;;;;;5039971;28;20582;-46
2022/12/25 00:48:37;;;;;;;11.60;5.15;;;8.80;99.90;;;;;;5047658;28;20175;-45
2022/12/25 00:51:05;;;;;;;13.55;4.60;;;8.80;99.90;;;;;;5035062;28;20657;-45
2022/12/25 00:53:31;;;;;;;12.05;4.80;;;8.90;99.90;;;;;;5044307;28;20529;-45
2022/12/25 00:56:00;;;;;;;8.93;4.80;;;8.80;99.90;;;;;;5055117;28;20630;-45
2022/12/25 00:58:29;;;;;;;9.00;4.82;;;8.80;99.90;;;;;;5054886;28;20210;-47
2022/12/25 01:00:55;;;;;;;11.75;4.95;;;8.90;99.90;;;;;;5054767;28;20241;-45
2022/12/25 01:03:21;;;;;;;12.43;5.57;;;8.80;99.90;;;;;;5054518;28;20196;-45
2022/12/25 01:05:58;;;;;;;9.10;4.03;;;8.80;99.90;;;;;;5045122;28;20206;-51
2022/12/25 01:08:24;;;;;;;10.85;4.65;;;8.80;99.90;;;;;;5034407;28;20220;-46
2022/12/25 01:11:02;;;;;;;11.73;4.65;;;8.80;99.90;;;;;;5034348;28;20623;-50
2022/12/25 01:13:29;;;;;;;15.07;5.53;;;8.80;99.90;;;;;;5034312;28;20750;-50
2022/12/25 01:15:55;;;;;;;9.85;5.05;;;8.80;99.90;;;;;;5043625;28;20257;-51
2022/12/25 01:18:22;;;;;;;11.30;5.80;;;8.80;99.90;;;;;;5052444;28;20210;-50
2022/12/25 01:20:47;;;;;;;11.10;5.13;;;8.70;99.90;;;;;;5054306;28;20175;-46
2022/12/25 01:23:13;;;;;;;13.10;5.50;;;8.80;99.90;;;;;;5054182;28;20181;-45
2022/12/25 01:25:39;;;;;;;12.77;4.70;;;8.80;99.90;;;;;;5050963;28;20580;-48
2022/12/25 01:28:05;;;;;;;8.88;4.30;;;8.80;99.90;;;;;;5035244;28;20695;-46
2022/12/25 01:30:31;;;;;;;11.18;4.70;;;8.70;99.90;;;;;;5033892;28;20669;-47
2022/12/25 01:32:57;;;;;;;13.65;5.05;;;8.80;99.90;;;;;;5033938;28;20246;-47
2022/12/25 01:35:22;;;;;;;13.80;4.30;;;8.80;99.90;;;;;;5050277;28;20186;-49
2022/12/25 01:37:49;;;;;;;11.50;5.05;;;8.70;99.90;;;;;;5041885;28;20243;-48
2022/12/25 01:40:15;;;;;;;18.10;5.68;;;8.80;99.90;;;;;;5035093;28;20601;-48
2022/12/25 01:42:40;;;;;;;9.65;4.43;;;8.70;99.90;;;;;;5034652;28;20255;-45
2022/12/25 01:45:29;;;;;;;13.55;5.00;;;8.80;99.90;;;;;;5049944;28;20265;-46
2022/12/25 01:47:55;;;;;;;9.32;4.97;;;8.70;99.90;;;;;;5039230;28;20174;-45
2022/12/25 01:50:21;;;;;;;11.90;4.40;;;8.80;99.90;;;;;;5051776;28;20264;-45
2022/12/25 01:52:47;;;;;;;12.40;5.35;;;8.80;99.90;;;;;;5043925;28;20183;-46
2022/12/25 01:55:13;;;;;;;14.98;4.57;;;8.70;99.90;;;;;;5034780;28;20172;-47
2022/12/25 01:57:40;;;;;;;7.55;3.95;;;8.70;99.90;;;;;;5033563;28;20285;-45
2022/12/25 02:00:07;;;;;;;10.25;4.43;;;8.70;99.90;;;;;;5034649;28;20753;-51
2022/12/25 02:02:34;;;;;;;17.70;4.90;;;8.70;99.90;;;;;;5033807;28;20301;-50
2022/12/25 02:05:12;;;;;;;8.65;4.18;;;8.80;99.90;;;;;;5046278;28;20594;-47
2022/12/25 02:07:40;;;;;;;9.82;4.40;;;8.80;99.90;;;;;;5051572;28;20634;-46
2022/12/25 02:10:07;;;;;;;11.73;5.03;;;8.70;99.90;;;;;;5052131;28;20182;-45
2022/12/25 02:12:34;;;;;;;10.13;4.13;;;8.70;99.90;;;;;;5041551;28;20175;-45
2022/12/25 02:15:13;;;;;;;9.65;5.57;;;8.80;99.90;;;;;;5033609;28;20172;-46
2022/12/25 02:17:49;;;;;;;9.68;5.43;;;8.70;99.90;;;;;;5034427;28;20198;-45
2022/12/25 02:20:56;;;;;;;10.30;4.65;;;8.80;99.90;;;;;;5033839;28;20519;-45
2022/12/25 02:23:52;;;;;;;14.38;5.18;;;8.70;99.90;;;;;;5043182;28;20672;-45
2022/12/25 02:26:17;;;;;;;11.98;5.10;;;8.80;99.90;;;;;;5053547;28;20315;-45
2022/12/25 02:29:04;;;;;;;10.13;4.47;;;8.70;99.90;;;;;;5050818;28;20262;-45
2022/12/25 02:31:41;;;;;;;14.52;5.10;;;8.70;99.90;;;;;;5052850;28;20170;-45
2022/12/25 02:34:28;;;;;;;11.18;5.30;;;8.80;99.90;;;;;;5052800;28;20173;-45
2022/12/25 02:37:08;;;;;;;11.65;5.40;;;8.70;99.90;;;;;;5033349;28;20269;-44
2022/12/25 02:39:58;;;;;;;7.40;5.00;;;8.60;99.90;;;;;;5034279;28;20236;-46
2022/12/25 03:07:45;;;;;;;7.72;4.68;;;8.80;99.90;;;;;;5032827;28;20248;-46
2022/12/25 03:13:23;;;;;;;6.00;3.83;;;8.80;99.90;;;;;;5030115;28;20723;-45
2022/12/25 03:18:34;;;;;;;9.07;3.90;;;8.90;99.90;;;;;;5044836;28;20728;-45
2022/12/25 03:26:56;;;;;;;5.40;2.63;;;9.10;99.90;;;;;;5028856;28;20249;-48
2022/12/25 03:33:11;;;;;;;8.13;3.42;;;9.20;99.90;;;;;;4993133;28;20254;-48
2022/12/25 03:35:44;;;;;;;8.40;3.20;;;9.10;99.90;;;;;;4983325;28;20193;-46
2022/12/25 03:38:55;;;;;;;7.40;3.42;;;9.20;99.90;;;;;;5022706;28;20556;-45
2022/12/25 04:37:29;;;;;;;8.82;3.05;;;9.10;99.90;;;;;;5030882;28;20581;-47
2022/12/25 04:39:55;;;;;;;7.65;3.28;;;9.10;99.90;;;;;;5031760;28;20179;-48
2022/12/25 04:42:21;;;;;;;8.18;3.30;;;9.00;99.90;;;;;;5030908;28;20171;-51
2022/12/25 04:44:46;;;;;;;8.15;3.70;;;9.00;99.90;;;;;;5032639;28;20173;-47
2022/12/25 04:47:12;;;;;;;5.28;3.53;;;9.00;99.90;;;;;;5047296;28;20179;-45
2022/12/25 04:49:38;;;;;;;9.27;3.60;;;9.00;99.90;;;;;;5040903;28;20612;-48
2022/12/25 04:52:03;;;;;;;7.53;2.92;;;9.00;99.90;;;;;;5050957;28;20249;-45
2022/12/25 04:54:29;;;;;;;4.97;2.30;;;9.00;99.90;;;;;;5034009;28;20258;-47
2022/12/25 04:56:54;;;;;;;11.30;2.63;;;9.00;99.90;;;;;;5030888;28;20168;-51
2022/12/25 04:59:20;;;;;;;4.07;1.80;;;9.00;99.90;;;;;;5030879;28;20260;-51
2022/12/25 05:01:46;;;;;;;7.75;2.47;;;9.00;99.90;;;;;;5029630;28;20250;-52
2022/12/25 05:04:11;;;;;;;6.78;2.00;;;9.10;99.90;;;;;;5030794;28;20186;-51
2022/12/25 05:06:37;;;;;;;8.15;2.42;;;9.00;99.90;;;;;;5047200;28;20179;-52
2022/12/25 05:09:03;;;;;;;7.05;2.00;;;9.10;99.90;;;;;;5050598;28;20212;-52
2022/12/25 05:11:28;;;;;;;6.95;2.33;;;7.60;99.90;;;;;;5051717;28;20593;-52
2022/12/25 05:13:55;;;;;;;5.68;2.63;;;9.00;99.90;;;;;;5050832;28;20158;-52
2022/12/25 05:16:21;;;;;;;5.15;2.08;;;9.20;99.90;;;;;;5050611;28;20690;-51
2022/12/25 05:18:49;;;;;;;7.10;2.40;;;9.10;99.90;;;;;;5050608;28;20206;-52
2022/12/25 05:21:15;;;;;;;5.50;2.80;;;9.10;99.90;;;;;;5054618;28;20223;-52
2022/12/25 05:23:47;;;;;;;6.03;1.85;;;9.20;99.90;;;;;;5054391;28;20261;-52
2022/12/25 05:26:18;;;;;;;3.65;2.03;;;9.20;99.90;;;;;;5054396;28;20194;-52
2022/12/25 05:28:44;;;;;;;5.10;1.85;;;9.50;99.90;;;;;;5054487;28;20166;-52
2022/12/25 05:31:10;;;;;;;4.07;1.90;;;9.20;99.90;;;;;;5053488;28;20154;-51
2022/12/25 05:33:36;;;;;;;6.07;2.00;;;9.20;99.90;;;;;;5046581;28;20175;-52
2022/12/25 05:36:03;;;;;;;8.07;1.75;;;9.20;99.90;;;;;;5033812;28;20297;-53
2022/12/25 05:38:29;;;;;;;3.75;1.80;;;9.20;99.90;;;;;;5051703;28;20210;-52
2022/12/25 05:40:55;;;;;;;7.30;2.35;;;9.10;99.90;;;;;;5051763;28;20178;-53
2022/12/25 05:43:20;;;;;;;6.13;2.20;;;9.10;99.90;;;;;;5053745;28;20179;-52
2022/12/25 05:45:46;;;;;;;4.03;2.35;;;9.10;99.90;;;;;;5053842;28;20224;-52
2022/12/25 05:48:11;;;;;;;6.97;2.03;;;9.10;99.90;;;;;;5036579;28;20546;-52
2022/12/25 05:50:37;;;;;;;6.00;2.08;;;9.10;99.90;;;;;;5044726;28;20221;-52
2022/12/25 05:53:04;;;;;;;3.90;1.95;;;9.10;99.90;;;;;;5041266;28;20250;-52
2022/12/25 05:55:36;;;;;;;4.70;2.55;;;9.20;99.90;;;;;;5052863;28;20194;-52
2022/12/25 05:58:02;;;;;;;5.70;2.10;;;9.20;99.90;;;;;;5053191;28;20210;-52
2022/12/25 06:00:28;;;;;;;5.25;2.03;;;9.10;99.90;;;;;;5053584;28;20577;-52
2022/12/25 06:02:53;;;;;;;6.15;2.75;;;9.10;99.90;;;;;;5053250;28;20214;-52
2022/12/25 06:05:19;;;;;;;5.68;2.13;;;9.20;99.90;;;;;;5053432;28;20166;-52
2022/12/25 06:07:45;;;;;;;7.70;1.95;;;9.10;99.90;;;;;;5053775;28;20247;-53
2022/12/25 06:10:10;;;;;;;3.65;2.05;;;9.10;99.90;;;;;;5041452;28;20540;-52
2022/12/25 06:12:36;;;;;;;8.48;2.85;;;9.10;99.90;;;;;;5052063;28;20627;-52
2022/12/25 06:15:02;;;;;;;5.22;2.10;;;9.10;99.90;;;;;;5052900;28;20232;-52
2022/12/25 06:17:28;;;;;;;10.93;2.72;;;9.10;99.90;;;;;;5053772;28;20640;-51
2022/12/25 06:19:53;;;;;;;5.82;2.28;;;9.10;99.90;;;;;;5053421;28;20203;-52
2022/12/25 06:22:19;;;;;;;5.35;2.75;;;9.10;99.90;;;;;;5053111;28;20515;-52
2022/12/25 06:24:45;;;;;;;3.85;2.50;;;9.10;99.90;;;;;;5051726;28;20182;-52
2022/12/25 06:27:10;;;;;;;7.72;2.60;;;9.10;99.90;;;;;;5039701;28;20310;-52
2022/12/25 06:29:36;;;;;;;3.83;2.10;;;9.10;99.90;;;;;;5032780;28;20221;-52
2022/12/25 06:32:01;;;;;;;7.10;2.97;;;9.10;99.90;;;;;;5032438;28;20184;-52
2022/12/25 06:34:27;;;;;;;9.73;2.40;;;9.10;99.90;;;;;;5032751;28;20167;-52
2022/12/25 06:36:52;;;;;;;7.00;2.22;;;9.10;99.90;;;;;;5048399;28;20178;-45
2022/12/25 06:39:20;;;;;;;9.55;4.43;;;9.10;99.90;;;;;;5051318;28;20208;-45
2022/12/25 06:41:45;;;;;;;5.93;2.90;;;9.20;99.90;;;;;;5035429;28;20179;-45
2022/12/25 06:44:11;;;;;;;7.35;2.47;;;9.10;99.90;;;;;;5033679;28;20172;-45
2022/12/25 06:46:37;;;;;;;6.40;3.10;;;9.10;99.90;;;;;;5043981;28;20171;-45
2022/12/25 06:49:03;;;;;;;9.13;3.65;;;9.20;99.90;;;;;;5048512;28;20627;-45
2022/12/25 06:51:30;;;;;;;9.27;3.65;;;9.10;99.90;;;;;;5043449;28;20174;-45
2022/12/25 06:53:56;;;;;;;10.35;3.08;;;9.10;99.90;;;;;;5052280;28;20162;-45
2022/12/25 06:56:25;;;;;;;12.55;3.60;;;9.10;99.90;;;;;;5034428;28;20190;-45
2022/12/25 06:58:59;;;;;;;15.27;4.50;;;9.10;99.90;;;;;;5032437;28;20293;-46
2022/12/25 07:01:43;;;;;;;12.55;4.18;;;9.10;99.90;;;;;;5032183;28;20244;-45
2022/12/25 07:04:20;;;;;;;8.02;2.85;;;9.10;99.90;;;;;;5032224;28;20535;-45
2022/12/25 07:06:46;;;;;;;14.48;4.00;;;9.20;99.90;;;;;;5035939;28;20576;-45
2022/12/25 07:09:12;;;;;;;19.38;6.82;;;9.20;99.90;;;;;;5052431;28;20175;-45
2022/12/25 07:11:37;;;;;;;12.68;4.47;;;9.10;99.90;;;;;;5050270;28;20627;-45
2022/12/25 07:14:03;;;;;;;18.42;5.25;;;9.20;99.90;;;;;;5031941;28;20182;-45
2022/12/25 07:16:29;;;;;;;13.02;3.28;;;9.10;99.90;;;;;;5031611;28;20200;-45
2022/12/25 07:18:54;;;;;;;14.60;3.67;;;9.10;99.90;;;;;;5031617;28;20202;-45
2022/12/25 07:21:20;;;;;;;14.45;4.15;;;9.10;99.90;;;;;;5031407;28;20164;-45
2022/12/25 07:23:48;;;;;;;11.35;3.95;;;9.10;99.90;;;;;;5032028;28;20175;-45
2022/12/25 07:26:16;;;;;;;10.05;3.10;;;9.20;99.90;;;;;;5041073;28;20163;-44
2022/12/25 07:28:42;;;;;;;9.55;3.33;;;9.20;99.90;;;;;;5051967;28;20654;-45
2022/12/25 07:31:14;;;;;;;13.48;3.80;;;9.20;99.90;;;;;;5051417;28;20216;-48
2022/12/25 07:33:40;;;;;;;8.05;3.17;;;9.20;99.90;;;;;;5051598;28;20258;-49
2022/12/25 07:36:07;;;;;;;13.68;3.65;;;9.20;99.90;;;;;;5051477;28;20586;-46
2022/12/25 07:38:33;;;;;;;9.10;3.95;;;9.20;99.90;;;;;;5050863;28;20297;-49
2022/12/25 07:40:59;;;;;;;13.98;4.38;;;9.20;99.90;;;;;;5038734;28;20226;-47
2022/12/25 07:43:24;;;;;;;16.33;4.25;;;9.30;99.90;;;;;;5030861;28;20201;-51
2022/12/25 07:45:58;;;;;;;13.75;5.65;;;9.30;99.90;;;;;;5031600;28;20221;-45
2022/12/25 07:48:25;;;;;;;12.75;3.38;;;9.20;99.90;;;;;;5031770;28;20171;-45
2022/12/25 07:51:02;;;;;;;11.68;4.65;;;9.20;99.90;;;;;;5032275;28;20578;-44
2022/12/25 07:53:28;;;;;;;17.58;7.22;;;9.30;99.90;;;;;;5043353;28;20254;-44
2022/12/25 07:55:59;;;;;;;8.63;4.78;;;9.30;99.90;;;;;;5034221;28;20163;-44
2022/12/25 07:58:25;;;;;;;9.30;3.88;;;9.20;99.90;;;;;;5031509;28;20202;-44
2022/12/25 08:00:51;;;;;;;17.08;5.57;;;9.30;99.90;;;;;;5049383;28;20171;-44
2022/12/25 08:03:17;;;;;;;13.93;5.57;;;9.30;99.90;;;;;;5051254;28;20549;-44
2022/12/25 08:05:42;;;;;;;17.40;5.45;;;9.30;99.90;;;;;;5051686;28;20171;-45
2022/12/25 08:08:08;;;;;;;9.02;4.43;;;9.40;99.90;;;;;;5051355;28;20174;-47
2022/12/25 08:10:34;;;;;;;20.98;9.10;;;9.20;99.90;;;;;;5034011;28;20179;-47
2022/12/25 08:12:59;;;;;;;11.75;4.82;;;9.30;99.90;;;;;;5036949;28;20277;-45
2022/12/25 08:15:25;;;;;;;12.82;4.43;;;9.30;99.90;;;;;;5033672;28;20246;-45
2022/12/25 08:17:50;;;;;;;15.70;6.38;;;9.20;99.90;;;;;;5031400;28;20232;-45
2022/12/25 08:20:16;;;;;;;13.40;5.85;;;9.30;99.90;;;;;;5031304;28;20226;-45
2022/12/25 08:22:41;;;;;;;8.93;4.60;;;9.30;99.90;;;;;;5032230;28;20187;-45
2022/12/25 08:25:07;;;;;;;16.80;4.88;;;9.20;99.90;;;;;;5031606;28;20218;-47
2022/12/25 08:27:33;;;;;;;12.48;6.03;;;9.30;99.90;;;;;;5031588;28;20183;-48
2022/12/25 08:29:58;;;;;;;14.95;5.35;;;9.30;99.90;;;;;;5031555;28;20175;-46
2022/12/25 08:32:24;;;;;;;15.65;6.60;;;9.40;99.90;;;;;;5031495;28;20225;-45
2022/12/25 08:34:49;;;;;;;8.45;4.53;;;9.30;99.90;;;;;;5032033;28;20635;-45
2022/12/25 08:37:15;;;;;;;16.17;5.82;;;9.30;99.90;;;;;;5031224;28;20167;-44
2022/12/25 08:39:41;;;;;;;18.38;7.78;;;9.30;99.90;;;;;;5031034;28;20203;-45
2022/12/25 08:42:06;;;;;;;17.10;5.97;;;9.30;99.90;;;;;;5030942;28;20189;-44
2022/12/25 08:44:32;;;;;;;11.52;5.72;;;9.40;99.90;;;;;;5031108;28;20172;-45
2022/12/25 08:46:57;;;;;;;17.98;7.57;;;9.40;99.90;;;;;;5031308;28;20170;-45
2022/12/25 08:49:26;;;;;;;13.88;6.68;;;9.40;99.90;;;;;;5031477;28;20171;-45
2022/12/25 08:51:51;;;;;;;8.32;5.80;;;9.40;99.90;;;;;;5031351;28;20536;-45
2022/12/25 08:54:17;;;;;;;11.23;5.97;;;9.40;99.90;;;;;;5033592;28;20159;-45
2022/12/25 08:56:42;;;;;;;10.90;5.85;;;9.50;99.90;;;;;;5034201;28;20178;-45
2022/12/25 08:59:08;;;;;;;15.20;6.90;;;9.50;99.90;;;;;;5035101;28;20285;-45
2022/12/25 09:01:33;;;;;;;9.40;5.78;;;9.50;99.90;;;;;;5034862;28;20345;-45
2022/12/25 09:03:59;;;;;;;36.75;12.82;;;9.50;99.90;;;;;;5035009;28;20207;-46
2022/12/25 09:06:24;;;;;;;10.07;5.57;;;9.50;99.90;;;;;;5034995;28;20167;-45
2022/12/25 09:08:50;;;;;;;9.77;5.68;;;9.40;99.90;;;;;;5034846;28;20179;-44
2022/12/25 09:11:18;;;;;;;17.67;8.82;;;9.50;99.90;;;;;;5035039;28;20168;-45
2022/12/25 09:13:44;;;;;;;29.80;12.80;;;9.50;99.90;;;;;;5034944;28;20535;-44
2022/12/25 09:16:12;;;;;;;23.73;12.15;;;9.60;99.90;;;;;;5034793;28;20164;-45
2022/12/25 09:18:38;;;;;;;22.42;10.45;;;9.50;99.90;;;;;;5034523;28;20609;-45
2022/12/25 09:21:06;;;;;;;15.77;6.68;;;9.50;99.90;;;;;;5034288;28;20170;-44
2022/12/25 09:23:33;;;;;;;19.35;9.30;;;9.50;99.90;;;;;;5034583;28;20178;-45
2022/12/25 09:26:03;;;;;;;15.85;7.70;;;9.50;99.90;;;;;;5034837;28;20175;-45
2022/12/25 09:28:29;;;;;;;42.00;18.10;;;9.60;99.90;;;;;;5034726;28;20514;-45
2022/12/25 09:30:55;;;;;;;32.10;12.93;;;9.60;99.90;;;;;;5034171;28;20171;-45
2022/12/25 09:33:21;;;;;;;135.55;61.58;;;9.60;99.90;;;;;;5034433;28;20171;-45
2022/12/25 09:36:01;;;;;;;17.73;9.50;;;9.50;99.90;;;;;;5034658;28;20171;-45
2022/12/25 09:38:28;;;;;;;27.85;13.95;;;9.60;99.90;;;;;;5034208;28;20210;-44
2022/12/25 09:41:31;;;;;;;27.60;11.85;;;9.50;99.90;;;;;;5034355;28;20167;-45
2022/12/25 09:44:12;;;;;;;29.85;12.00;;;9.50;99.90;;;;;;5039324;28;20203;-47
2022/12/25 09:46:42;;;;;;;17.55;8.05;;;9.60;99.90;;;;;;5034216;28;20523;-48
2022/12/25 09:49:22;;;;;;;23.58;10.23;;;9.60;99.90;;;;;;5034033;28;20163;-45
2022/12/25 09:51:56;;;;;;;40.25;15.57;;;9.70;99.90;;;;;;5033874;28;20191;-45
2022/12/25 09:54:35;;;;;;;16.20;7.50;;;9.60;99.90;;;;;;5034040;28;20175;-44
2022/12/25 09:57:01;;;;;;;39.88;17.15;;;9.60;99.90;;;;;;5033967;28;20233;-46
2022/12/25 09:59:26;;;;;;;12.13;7.05;;;9.60;99.90;;;;;;5033649;28;20211;-46
2022/12/25 10:02:24;;;;;;;18.75;9.90;;;9.60;99.90;;;;;;5033791;28;20222;-45
2022/12/25 10:05:19;;;;;;;19.85;11.30;;;9.60;99.90;;;;;;5033535;28;20174;-44
2022/12/25 10:07:57;;;;;;;26.80;15.68;;;9.70;99.90;;;;;;5034166;28;20174;-46
2022/12/25 10:10:31;;;;;;;10.43;6.90;;;9.70;99.90;;;;;;5033734;28;20887;-45
2022/12/25 10:13:25;;;;;;;13.95;9.68;;;9.60;99.90;;;;;;5033700;28;20171;-46
2022/12/25 10:16:19;;;;;;;24.65;16.25;;;7.90;99.90;;;;;;5035203;28;20171;-45
2022/12/25 10:19:09;;;;;;;25.65;16.17;;;9.60;99.90;;;;;;5039268;28;20214;-46
2022/12/25 10:21:35;;;;;;;13.95;9.88;;;9.80;99.90;;;;;;5041991;28;20163;-44
2022/12/25 10:24:23;;;;;;;14.75;10.45;;;9.70;99.90;;;;;;5039689;28;20175;-46
2022/12/25 10:26:52;;;;;;;20.95;13.85;;;9.70;99.90;;;;;;5044231;28;20163;-45
2022/12/25 10:29:21;;;;;;;16.38;11.82;;;9.70;99.90;;;;;;5034234;28;20623;-45
2022/12/25 10:31:52;;;;;;;19.52;14.10;;;9.70;99.90;;;;;;5040494;28;20213;-45
2022/12/25 10:34:18;;;;;;;18.20;10.30;;;9.80;99.90;;;;;;5039619;28;20194;-46
2022/12/25 10:36:45;;;;;;;13.38;8.55;;;9.80;99.90;;;;;;5035675;28;20603;-45
2022/12/25 10:39:16;;;;;;;12.77;9.45;;;9.80;99.90;;;;;;5042772;28;20283;-45
2022/12/25 10:42:02;;;;;;;30.35;21.40;;;9.80;99.90;;;;;;5039477;28;20177;-44
2022/12/25 10:44:27;;;;;;;21.83;16.00;;;9.80;99.90;;;;;;5034191;28;20171;-46
2022/12/25 10:46:57;;;;;;;25.80;18.60;;;9.70;99.90;;;;;;5051112;28;20704;-45
2022/12/25 10:49:26;;;;;;;20.58;16.33;;;9.80;99.90;;;;;;5038997;28;20216;-46
2022/12/25 10:51:52;;;;;;;18.35;13.30;;;9.80;99.90;;;;;;5050634;28;20206;-46
2022/12/25 10:54:25;;;;;;;12.70;8.02;;;9.80;99.90;;;;;;5038772;28;20634;-46
2022/12/25 10:57:12;;;;;;;21.35;10.93;;;9.70;99.90;;;;;;5037674;28;20217;-47
2022/12/25 10:59:49;;;;;;;11.63;7.68;;;9.80;99.90;;;;;;5045608;28;20543;-46
2022/12/25 11:02:26;;;;;;;13.77;7.53;;;9.80;99.90;;;;;;5044540;28;20214;-45
2022/12/25 11:05:08;;;;;;;16.83;10.35;;;9.90;99.90;;;;;;5042873;28;20170;-46
2022/12/25 11:07:52;;;;;;;12.48;8.57;;;9.80;99.90;;;;;;5040058;28;20237;-45
2022/12/25 11:10:37;;;;;;;23.75;14.25;;;9.80;99.90;;;;;;5039433;28;20197;-45
2022/12/25 11:13:06;;;;;;;29.00;19.13;;;9.80;99.90;;;;;;5050154;28;20174;-45
2022/12/25 11:15:40;;;;;;;24.48;16.85;;;9.90;99.90;;;;;;5051754;28;20170;-45
2022/12/25 11:18:42;;;;;;;16.80;11.48;;;10.00;99.90;;;;;;5050526;28;20198;-47
2022/12/25 11:21:31;;;;;;;19.33;15.23;;;10.00;99.90;;;;;;5047252;28;20216;-46
2022/12/25 11:23:59;;;;;;;15.75;11.45;;;10.00;99.90;;;;;;5050265;28;20167;-45
2022/12/25 11:26:27;;;;;;;26.40;16.67;;;9.90;99.90;;;;;;5051412;28;20250;-45
2022/12/25 11:28:54;;;;;;;34.95;21.33;;;10.00;99.90;;;;;;5050867;28;20225;-45
2022/12/25 11:31:28;;;;;;;33.47;23.67;;;10.10;99.90;;;;;;5052010;28;20198;-45
2022/12/25 11:34:10;;;;;;;31.73;22.33;;;10.00;99.90;;;;;;5051873;28;20586;-47
2022/12/25 11:36:44;;;;;;;18.30;12.00;;;10.00;99.90;;;;;;5047190;28;20190;-46
2022/12/25 11:39:15;;;;;;;33.03;23.48;;;9.90;99.90;;;;;;5041458;28;20316;-48
2022/12/25 11:41:42;;;;;;;41.92;28.10;;;10.00;99.90;;;;;;5036605;28;20190;-46
2022/12/25 11:44:37;;;;;;;29.55;23.48;;;10.00;99.90;;;;;;5040409;28;20167;-45
2022/12/25 11:47:13;;;;;;;22.70;17.73;;;10.00;99.90;;;;;;5042319;28;20182;-47
2022/12/25 11:50:01;;;;;;;24.33;17.75;;;9.90;99.90;;;;;;5047618;28;20185;-47
2022/12/25 11:52:32;;;;;;;30.08;20.00;;;10.00;99.90;;;;;;5050780;28;20166;-46
2022/12/25 11:55:20;;;;;;;20.90;14.63;;;10.00;99.90;;;;;;5046867;28;20173;-45
2022/12/25 11:57:53;;;;;;;12.77;9.65;;;9.90;99.90;;;;;;5051045;28;20248;-45
2022/12/25 12:00:20;;;;;;;11.80;8.68;;;10.00;99.90;;;;;;5035460;28;20572;-48
2022/12/25 12:03:04;;;;;;;29.75;19.20;;;9.90;99.90;;;;;;5031937;28;20277;-47
2022/12/25 12:05:45;;;;;;;19.95;12.57;;;10.00;99.90;;;;;;5043353;28;20208;-44
2022/12/25 12:08:12;;;;;;;20.38;11.70;;;10.00;99.90;;;;;;5031618;28;20179;-45
2022/12/25 12:11:15;;;;;;;18.85;11.80;;;10.00;99.90;;;;;;5031971;28;20369;-45
2022/12/25 12:13:49;;;;;;;27.77;16.30;;;10.10;99.90;;;;;;5031799;28;20170;-44
2022/12/25 12:16:15;;;;;;;17.48;9.70;;;10.10;99.90;;;;;;5033086;28;20550;-47
2022/12/25 12:18:40;;;;;;;28.92;20.45;;;10.10;99.90;;;;;;5050678;28;20217;-45
2022/12/25 12:21:09;;;;;;;16.92;11.05;;;10.00;99.90;;;;;;5047644;28;20174;-45
2022/12/25 12:24:07;;;;;;;17.27;10.15;;;10.10;99.90;;;;;;5036073;28;20175;-44
2022/12/25 12:26:37;;;;;;;14.52;9.02;;;10.00;99.90;;;;;;5040566;28;20314;-45
2022/12/25 12:29:05;;;;;;;13.70;9.43;;;10.00;99.90;;;;;;5039020;28;20183;-46
2022/12/25 12:31:41;;;;;;;17.52;12.10;;;9.90;99.90;;;;;;5034606;28;20218;-45
2022/12/25 12:34:18;;;;;;;17.83;8.55;;;10.00;99.90;;;;;;5033511;28;20194;-45
2022/12/25 12:36:43;;;;;;;21.58;9.63;;;10.00;99.90;;;;;;5035022;28;20630;-46
2022/12/25 12:39:25;;;;;;;13.07;8.90;;;10.00;99.90;;;;;;5034441;28;20213;-45
2022/12/25 12:41:50;;;;;;;18.02;10.18;;;10.00;99.90;;;;;;5048940;28;20173;-45
2022/12/25 12:44:17;;;;;;;27.95;19.00;;;10.10;99.90;;;;;;5054792;28;20250;-46
2022/12/25 12:46:54;;;;;;;19.60;11.57;;;10.10;99.90;;;;;;5045795;28;20163;-46
2022/12/25 12:49:25;;;;;;;19.38;13.20;;;10.10;99.90;;;;;;5043603;28;20257;-45
2022/12/25 12:52:20;;;;;;;26.23;14.15;;;10.10;99.90;;;;;;5041948;28;20179;-45
2022/12/25 12:55:00;;;;;;;18.38;10.75;;;10.10;99.90;;;;;;5038114;28;20171;-45
2022/12/25 12:57:31;;;;;;;18.27;10.65;;;10.20;99.90;;;;;;5049161;28;20543;-45
2022/12/25 12:59:57;;;;;;;24.15;11.88;;;10.20;99.90;;;;;;5034258;28;20175;-46
2022/12/25 13:02:46;;;;;;;17.65;10.20;;;10.30;99.90;;;;;;5033929;28;20626;-45
2022/12/25 13:05:46;;;;;;;23.05;11.50;;;10.30;99.90;;;;;;5031393;28;20264;-45
2022/12/25 13:08:33;;;;;;;15.73;10.07;;;10.30;99.90;;;;;;5034363;28;20190;-44
2022/12/25 13:11:37;;;;;;;13.35;8.60;;;10.30;99.90;;;;;;5048416;28;20193;-45
2022/12/25 13:14:04;;;;;;;13.43;7.88;;;13.60;99.90;;;;;;5054101;28;20288;-46
2022/12/25 13:16:35;;;;;;;12.98;7.38;;;10.30;99.90;;;;;;5054068;28;20217;-45
2022/12/25 13:19:06;;;;;;;20.25;14.32;;;10.20;99.90;;;;;;5047834;28;20199;-45
2022/12/25 13:21:32;;;;;;;18.08;12.52;;;10.20;99.90;;;;;;5045533;28;20171;-45
2022/12/25 13:24:06;;;;;;;17.95;11.88;;;10.30;99.90;;;;;;5044344;28;20183;-45
2022/12/25 13:26:32;;;;;;;18.27;10.63;;;10.30;99.90;;;;;;5053654;28;20159;-45
2022/12/25 13:28:57;;;;;;;13.88;8.15;;;10.30;99.90;;;;;;5048019;28;20258;-50
2022/12/25 13:31:28;;;;;;;17.58;7.70;;;10.30;99.90;;;;;;5053007;28;20182;-46
2022/12/25 13:34:04;;;;;;;12.40;7.45;;;10.40;99.90;;;;;;5053691;28;20539;-45
2022/12/25 13:36:36;;;;;;;13.25;7.63;;;10.40;99.90;;;;;;5053767;28;20190;-45
2022/12/25 13:39:05;;;;;;;11.82;7.97;;;10.30;99.90;;;;;;5050415;28;20198;-45
2022/12/25 13:44:29;;;;;;;12.48;10.05;;;10.50;99.90;;;;;;5044625;28;20186;-45
2022/12/25 13:46:54;;;;;;;13.95;8.88;;;10.50;99.90;;;;;;5040427;28;20167;-45
2022/12/25 13:49:23;;;;;;;16.77;9.90;;;10.70;99.90;;;;;;5052739;28;20175;-45
2022/12/25 13:51:50;;;;;;;12.63;7.95;;;10.60;99.90;;;;;;5039933;28;20185;-45
2022/12/25 13:54:17;;;;;;;11.38;7.88;;;10.80;99.90;;;;;;5033521;28;20293;-46
2022/12/25 13:56:49;;;;;;;15.10;8.23;;;10.80;99.90;;;;;;5039010;28;20182;-45
2022/12/25 13:59:18;;;;;;;9.75;7.63;;;10.90;99.90;;;;;;5037962;28;20692;-45
2022/12/25 14:01:46;;;;;;;10.15;7.75;;;10.80;99.90;;;;;;5046327;28;20680;-44
2022/12/25 14:04:18;;;;;;;10.55;7.05;;;10.90;99.90;;;;;;5042640;28;20546;-45
2022/12/25 14:06:44;;;;;;;18.40;9.57;;;10.90;99.90;;;;;;5046752;28;20175;-45
2022/12/25 14:09:12;;;;;;;16.10;10.27;;;10.80;99.90;;;;;;5045843;28;20624;-45
2022/12/25 14:11:39;;;;;;;11.18;7.20;;;10.80;99.90;;;;;;5049787;28;20167;-44
2022/12/25 14:14:23;;;;;;;11.95;8.02;;;10.90;99.90;;;;;;5048218;28;20183;-45
2022/12/25 14:16:52;;;;;;;12.07;7.55;;;10.90;99.90;;;;;;5033034;28;20160;-45
2022/12/25 14:19:31;;;;;;;9.20;6.45;;;11.00;99.90;;;;;;5033111;28;20249;-45
2022/12/25 14:22:04;;;;;;;18.52;10.75;;;11.00;99.90;;;;;;5031634;28;20249;-45
2022/12/25 14:24:32;;;;;;;8.07;6.30;;;11.00;99.90;;;;;;5032782;28;20661;-47
2022/12/25 14:27:01;;;;;;;10.48;6.43;;;11.00;99.90;;;;;;5032786;28;20534;-45
2022/12/25 14:29:33;;;;;;;17.23;8.50;;;11.00;99.90;;;;;;5032689;28;20191;-45
2022/12/25 14:32:03;;;;;;;10.45;6.50;;;11.00;99.90;;;;;;5032271;28;20175;-46
2022/12/25 14:34:32;;;;;;;9.07;6.97;;;11.10;99.90;;;;;;5032578;28;20182;-45
2022/12/25 14:36:58;;;;;;;12.70;6.45;;;11.10;99.90;;;;;;5032543;28;20175;-47
2022/12/25 14:39:34;;;;;;;10.45;6.75;;;11.10;99.90;;;;;;5032355;28;20244;-47
2022/12/25 14:42:17;;;;;;;9.93;6.78;;;11.10;99.90;;;;;;5032441;28;20178;-46
2022/12/25 14:44:53;;;;;;;13.13;8.43;;;11.10;99.90;;;;;;5032976;28;20635;-45